Terminal Aerodrome Forecast
Issued by NWS

Current Version | Previous Version | Text Only | Print | Product List | Glossary On
Versions: 1 2 3 4 5 6 7 8 9 10 11 12 13 14 15 16 17 18 19 20 21 22 23
020
FTUS43 KJKL 050555
TAFSME
TAF
KSME 050555Z 0506/0606 26005KT P6SM OVC010
     FM050900 VRB05KT P6SM OVC015
     FM051800 06004KT P6SM SCT015 SCT100
     FM060000 VRB03KT P6SM OVC100
     FM060400 VRB03KT P6SM VCSH OVC040=

USA.gov is the U.S. government's official web portal to all federal, state and local government web resources and services.